Time;durP1;ratioP1;P1;durP2;ratioP2;P2;SDS_P1;SDS_P2;PMS_P1;PMS_P2;Temp;Humidity;BMP_temperature;BMP_pressure;BME280_temperature;BME280_humidity;BME280_pressure;Samples;Min_cycle;Max_cycle;Signal;HPM_P1;HPM_P2
2023/06/24 07:19:26;;;;;;;7.10;6.28;;;;;;;19.82;61.59;102318.75;5323047;27;1286578;-68
2023/06/24 07:21:57;;;;;;;10.67;6.77;;;;;;;19.92;61.30;102322.00;5343433;27;20043;-68
2023/06/24 07:24:29;;;;;;;8.83;5.93;;;;;;;19.96;58.19;102311.25;5343964;27;20466;-68
2023/06/24 07:27:00;;;;;;;7.83;5.93;;;;;;;20.02;59.85;102311.09;5342514;28;20035;-67
2023/06/24 07:29:32;;;;;;;9.53;6.30;;;;;;;20.08;59.28;102307.41;5343974;28;20024;-67
2023/06/24 07:32:03;;;;;;;8.63;5.83;;;;;;;20.30;60.56;102314.72;5343965;28;20041;-67
2023/06/24 07:34:35;;;;;;;7.17;6.17;;;;;;;20.37;60.56;102309.22;5343823;28;20466;-67
2023/06/24 07:37:06;;;;;;;8.00;7.20;;;;;;;20.42;59.67;102313.50;5342463;28;20269;-68
2023/06/24 07:39:37;;;;;;;9.27;5.97;;;;;;;20.56;58.54;102306.03;5343484;27;20212;-67
2023/06/24 07:42:09;;;;;;;7.57;6.53;;;;;;;20.52;57.10;102313.16;5343406;27;20028;-67
2023/06/24 07:44:40;;;;;;;8.13;5.90;;;;;;;20.65;56.21;102305.75;5343220;28;20119;-66
2023/06/24 07:47:11;;;;;;;8.97;6.00;;;;;;;20.89;57.09;102303.25;5343807;27;20467;-67
2023/06/24 07:49:43;;;;;;;10.03;6.83;;;;;;;21.07;57.98;102304.44;5343523;27;20037;-67
2023/06/24 07:52:14;;;;;;;6.67;5.97;;;;;;;21.15;56.79;102302.38;5343256;27;20197;-68
2023/06/24 07:54:46;;;;;;;12.67;5.60;;;;;;;21.23;55.14;102310.09;5343227;27;20066;-67
2023/06/24 07:57:17;;;;;;;7.43;5.47;;;;;;;21.35;55.08;102307.03;5343062;27;20077;-67
2023/06/24 07:59:48;;;;;;;7.53;6.23;;;;;;;21.20;54.16;102304.91;5343352;27;20028;-66
2023/06/24 08:02:20;;;;;;;11.00;5.70;;;;;;;21.23;55.26;102308.31;5342791;27;20082;-67
2023/06/24 08:04:52;;;;;;;5.63;4.57;;;;;;;21.36;53.24;102311.41;5323095;28;20089;-68
2023/06/24 08:07:23;;;;;;;5.57;4.95;;;;;;;21.58;54.05;102308.94;5341560;27;20504;-67
2023/06/24 08:09:54;;;;;;;5.73;4.13;;;;;;;21.72;53.49;102308.44;5343060;28;20446;-68
2023/06/24 08:12:26;;;;;;;5.97;4.80;;;;;;;21.83;52.78;102302.75;5342280;28;20063;-67
2023/06/24 08:14:57;;;;;;;4.57;3.40;;;;;;;21.95;53.27;102298.78;5341531;28;20035;-67
2023/06/24 08:17:29;;;;;;;5.57;4.30;;;;;;;21.83;49.00;102303.63;5341603;28;20063;-66
2023/06/24 08:20:02;;;;;;;6.73;3.80;;;;;;;21.80;47.29;102305.50;5342642;27;20039;-67
2023/06/24 08:22:34;;;;;;;5.70;3.50;;;;;;;21.99;49.24;102306.59;5342168;27;20035;-67
2023/06/24 08:25:05;;;;;;;5.13;3.53;;;;;;;22.11;47.56;102302.59;5342650;28;20397;-68
2023/06/24 08:27:37;;;;;;;4.20;3.38;;;;;;;22.22;49.71;102300.41;5341596;28;20464;-68
2023/06/24 08:30:09;;;;;;;3.90;2.95;;;;;;;22.33;47.97;102292.06;5332176;27;20035;-67
2023/06/24 08:32:41;;;;;;;5.32;3.50;;;;;;;22.49;48.04;102289.69;5327681;28;20034;-67
2023/06/24 08:35:12;;;;;;;3.30;2.83;;;;;;;22.57;47.58;102295.56;5328448;28;20386;-68
2023/06/24 08:37:43;;;;;;;7.03;3.13;;;;;;;22.78;46.03;102290.31;5326045;28;20032;-68
2023/06/24 08:40:15;;;;;;;4.33;3.07;;;;;;;22.83;45.98;102285.69;5328173;28;20033;-68
2023/06/24 08:42:46;;;;;;;4.77;3.23;;;;;;;22.88;46.22;102286.34;5327227;28;20115;-68
2023/06/24 08:45:18;;;;;;;5.53;3.17;;;;;;;22.97;45.42;102279.78;5327282;28;20080;-68
2023/06/24 08:47:50;;;;;;;5.30;3.37;;;;;;;23.02;45.04;102284.91;5327541;28;20551;-68
2023/06/24 08:50:26;;;;;;;4.55;2.95;;;;;;;23.05;45.13;102282.13;5326772;28;20111;-68
2023/06/24 08:53:02;;;;;;;5.05;2.60;;;;;;;23.24;45.77;102276.94;5327753;28;20038;-68
2023/06/24 08:55:39;;;;;;;3.47;2.53;;;;;;;23.42;43.36;102286.78;5326115;28;20394;-68
2023/06/24 08:58:11;;;;;;;3.88;3.08;;;;;;;23.30;44.32;102288.19;5327299;27;20032;-67
2023/06/24 09:00:43;;;;;;;4.70;3.17;;;;;;;23.14;43.95;102291.56;5327319;28;20054;-67
2023/06/24 09:03:14;;;;;;;4.32;2.88;;;;;;;23.28;44.90;102287.38;5327673;28;20028;-68
2023/06/24 09:05:46;;;;;;;3.27;2.70;;;;;;;23.40;45.50;102279.81;5326935;28;20494;-68
2023/06/24 09:08:18;;;;;;;4.07;2.97;;;;;;;23.43;42.63;102287.66;5327464;28;20027;-68
2023/06/24 09:10:55;;;;;;;4.93;3.30;;;;;;;23.43;44.57;102287.66;5325716;28;20088;-68
2023/06/24 09:13:36;;;;;;;3.38;2.58;;;;;;;23.66;43.35;102281.31;5327186;28;20042;-67
2023/06/24 09:16:14;;;;;;;4.28;2.90;;;;;;;23.68;41.60;102287.44;5326038;28;20482;-68
2023/06/24 09:18:50;;;;;;;4.60;3.17;;;;;;;23.69;40.56;102281.19;5326029;28;20468;-67
2023/06/24 09:21:27;;;;;;;4.07;2.95;;;;;;;23.79;41.23;102289.63;5326758;28;20028;-68
2023/06/24 09:23:58;;;;;;;5.10;2.60;;;;;;;23.76;41.21;102279.97;5326900;28;20380;-68
2023/06/24 09:26:30;;;;;;;5.90;2.70;;;;;;;23.85;40.07;102276.06;5325236;28;20035;-68
2023/06/24 09:29:01;;;;;;;4.97;3.00;;;;;;;23.90;40.78;102271.41;5327466;28;20521;-68
2023/06/24 09:31:32;;;;;;;4.63;3.13;;;;;;;23.97;40.07;102259.56;5326268;28;20036;-68
2023/06/24 09:34:04;;;;;;;4.43;2.77;;;;;;;24.29;39.59;102261.63;5326887;28;20094;-68
2023/06/24 09:36:35;;;;;;;4.37;2.73;;;;;;;24.26;39.43;102257.28;5325062;28;20027;-68
2023/06/24 09:39:08;;;;;;;5.20;2.90;;;;;;;24.20;39.45;102253.13;5326269;28;20378;-67
2023/06/24 09:41:41;;;;;;;3.97;3.03;;;;;;;24.17;38.92;102252.44;5325162;28;20497;-67
2023/06/24 09:44:13;;;;;;;3.85;2.80;;;;;;;24.35;39.93;102246.22;5326281;28;20043;-67
2023/06/24 09:46:45;;;;;;;3.30;2.70;;;;;;;24.33;38.49;102249.91;5326305;28;20450;-68
2023/06/24 09:49:16;;;;;;;3.55;2.45;;;;;;;24.42;37.77;102244.09;5326754;28;20031;-69
2023/06/24 09:51:49;;;;;;;3.77;2.90;;;;;;;24.52;39.23;102256.06;5325957;27;20035;-69
2023/06/24 09:54:22;;;;;;;4.65;3.13;;;;;;;24.62;38.93;102251.19;5326187;28;20032;-68
2023/06/24 09:56:53;;;;;;;;;;;;;;;24.89;38.08;102243.63;5326355;28;20055;-67
2023/06/24 09:59:26;;;;;;;5.17;3.07;;;;;;;24.87;38.65;102247.28;5321167;28;19962;-69
2023/06/24 10:01:59;;;;;;;3.38;2.80;;;;;;;24.96;37.47;102243.31;5310285;28;20024;-69
2023/06/24 10:04:32;;;;;;;3.55;2.60;;;;;;;25.19;38.13;102244.81;5304273;28;20485;-68
2023/06/24 10:07:04;;;;;;;3.67;2.47;;;;;;;25.36;36.89;102244.81;5318763;28;20020;-68
2023/06/24 10:09:35;;;;;;;3.33;2.63;;;;;;;25.51;38.55;102239.63;5324709;28;20039;-69
2023/06/24 10:12:07;;;;;;;3.88;2.42;;;;;;;26.33;36.47;102246.75;5325208;28;20382;-66
2023/06/24 10:14:38;;;;;;;3.20;2.50;;;;;;;28.33;32.07;102250.78;5325275;28;20064;-67
2023/06/24 10:17:11;;;;;;;3.35;2.63;;;;;;;29.79;29.99;102244.56;5324336;28;20449;-68
2023/06/24 10:19:44;;;;;;;5.07;2.80;;;;;;;30.28;29.98;102240.97;5326092;28;20444;-68
2023/06/24 10:22:15;;;;;;;4.32;2.60;;;;;;;31.38;30.06;102238.13;5325131;28;20040;-68
2023/06/24 10:24:47;;;;;;;;;;;;;;;33.52;26.70;102241.19;5326388;28;20092;-67
2023/06/24 10:27:24;;;;;;;4.83;3.33;;;;;;;31.90;27.81;102247.47;5324503;28;19956;-68
2023/06/24 10:29:58;;;;;;;4.60;3.03;;;;;;;32.19;28.01;102236.19;5313930;28;20277;-68
2023/06/24 10:32:42;;;;;;;4.60;2.40;;;;;;;31.78;26.61;102243.06;5313987;28;20028;-67
2023/06/24 10:35:25;;;;;;;3.33;2.63;;;;;;;32.37;27.96;102232.94;5315268;28;20032;-68
2023/06/24 10:37:58;;;;;;;4.45;2.65;;;;;;;32.32;26.13;102228.78;5313627;28;20016;-67
2023/06/24 10:40:38;;;;;;;4.10;2.65;;;;;;;33.90;25.75;102226.97;5312787;28;20024;-68
2023/06/24 10:43:25;;;;;;;3.35;2.58;;;;;;;34.04;24.94;102224.91;5314848;28;20026;-68
2023/06/24 10:46:01;;;;;;;6.00;3.67;;;;;;;33.67;24.28;102220.06;5322832;28;20582;-68
2023/06/24 10:48:33;;;;;;;4.82;3.47;;;;;;;33.94;26.02;102219.44;5325826;28;20031;-69
2023/06/24 10:51:04;;;;;;;6.80;3.13;;;;;;;34.87;24.36;102220.84;5323645;28;20042;-69
2023/06/24 10:53:36;;;;;;;5.07;2.80;;;;;;;35.31;23.40;102212.19;5325442;28;20059;-69
2023/06/24 10:56:08;;;;;;;3.88;2.83;;;;;;;35.11;24.39;102207.78;5323370;28;20035;-69
2023/06/24 10:58:40;;;;;;;4.65;3.28;;;;;;;35.49;22.24;102209.53;5325593;28;20378;-69
2023/06/24 11:01:15;;;;;;;4.57;3.30;;;;;;;35.34;22.55;102211.03;5323741;28;20081;-67
2023/06/24 11:03:49;;;;;;;5.85;3.30;;;;;;;35.77;23.06;102209.56;5325023;28;20114;-68
2023/06/24 11:06:21;;;;;;;4.75;2.92;;;;;;;36.67;22.14;102212.34;5324807;28;20032;-68
2023/06/24 11:08:52;;;;;;;5.07;3.67;;;;;;;36.93;23.31;102206.09;5324183;28;20100;-68
2023/06/24 11:11:25;;;;;;;4.53;3.97;;;;;;;36.25;21.90;102204.84;5323696;28;20058;-69
2023/06/24 11:13:58;;;;;;;4.97;3.40;;;;;;;36.84;22.00;102203.34;5325172;28;20385;-68
2023/06/24 11:16:30;;;;;;;4.50;3.67;;;;;;;36.10;21.75;102205.34;5323297;28;20042;-68
2023/06/24 11:19:04;;;;;;;6.53;3.47;;;;;;;35.51;23.10;102202.09;5325036;28;20055;-68
2023/06/24 11:21:36;;;;;;;5.22;3.92;;;;;;;36.45;22.53;102198.25;5323513;28;20027;-68
2023/06/24 11:24:07;;;;;;;3.13;2.83;;;;;;;36.30;22.22;102197.09;5325112;28;20545;-69
2023/06/24 11:26:42;;;;;;;4.28;3.00;;;;;;;37.18;22.81;102196.25;5323653;28;20032;-69
2023/06/24 11:29:16;;;;;;;3.30;2.83;;;;;;;37.71;21.88;102186.16;5325199;28;20031;-69
2023/06/24 11:31:51;;;;;;;7.28;3.90;;;;;;;37.24;21.84;102184.72;5324462;28;20478;-68
2023/06/24 11:34:22;;;;;;;6.95;3.78;;;;;;;36.86;21.46;102178.72;5324774;28;20023;-68
2023/06/24 11:36:54;;;;;;;4.57;3.90;;;;;;;36.70;24.48;102184.88;5324503;28;20020;-69
2023/06/24 11:39:27;;;;;;;4.75;4.00;;;;;;;35.14;22.58;102177.69;5325030;28;20035;-67
2023/06/24 11:41:59;;;;;;;5.82;3.92;;;;;;;35.06;23.67;102167.59;5324552;28;20103;-68
2023/06/24 11:44:31;;;;;;;4.38;3.60;;;;;;;34.44;23.67;102167.09;5324483;28;20106;-69
2023/06/24 11:47:07;;;;;;;5.82;3.60;;;;;;;34.74;23.87;102166.09;5311247;28;20032;-69
2023/06/24 11:49:52;;;;;;;5.70;4.13;;;;;;;35.95;22.76;102177.03;5305798;28;20073;-70
2023/06/24 11:52:47;;;;;;;5.75;3.47;;;;;;;35.65;23.86;102172.75;5302764;28;20042;-70
2023/06/24 11:55:21;;;;;;;5.35;3.80;;;;;;;36.33;22.54;102170.47;5303176;28;20049;-69
2023/06/24 11:58:06;;;;;;;11.02;3.83;;;;;;;37.58;21.27;102162.97;5302938;28;20039;-69
2023/06/24 12:00:42;;;;;;;6.65;3.72;;;;;;;37.96;19.38;102162.56;5302869;28;20043;-69
2023/06/24 12:03:14;;;;;;;4.57;3.85;;;;;;;37.12;19.85;102161.56;5303755;28;20044;-69
2023/06/24 12:05:47;;;;;;;5.15;3.90;;;;;;;36.66;22.46;102153.59;5305713;28;20104;-71
2023/06/24 12:08:18;;;;;;;4.90;3.88;;;;;;;36.78;21.94;102155.06;5307686;28;20052;-69
2023/06/24 12:10:50;;;;;;;4.70;3.90;;;;;;;36.47;21.29;102147.34;5306461;28;20064;-69
2023/06/24 12:13:21;;;;;;;6.43;3.90;;;;;;;37.01;21.64;102154.53;5307088;28;20107;-69
2023/06/24 12:15:53;;;;;;;5.65;4.03;;;;;;;37.50;22.06;102143.91;5303223;28;20481;-69
2023/06/24 12:18:24;;;;;;;3.80;3.42;;;;;;;38.52;21.29;102148.31;5306729;28;20063;-69
2023/06/24 12:20:55;;;;;;;4.70;4.03;;;;;;;39.05;19.09;102144.13;5305538;28;20479;-67
2023/06/24 12:23:27;;;;;;;4.47;3.97;;;;;;;39.14;18.51;102147.69;5305346;28;20368;-69
2023/06/24 12:25:58;;;;;;;5.65;4.03;;;;;;;38.85;19.15;102143.66;5305798;28;20028;-69
2023/06/24 12:28:29;;;;;;;5.78;4.05;;;;;;;39.22;20.50;102139.47;5305632;28;20040;-68
2023/06/24 12:31:01;;;;;;;5.07;4.18;;;;;;;39.95;19.38;102140.13;5306012;28;20368;-69
2023/06/24 12:33:32;;;;;;;7.75;4.78;;;;;;;39.17;18.57;102128.25;5307338;28;20471;-69
2023/06/24 12:36:04;;;;;;;5.72;4.40;;;;;;;39.22;19.47;102125.84;5306542;28;20043;-69
2023/06/24 12:38:36;;;;;;;6.75;4.75;;;;;;;38.23;20.51;102134.19;5305424;28;20036;-69
2023/06/24 12:41:07;;;;;;;6.80;4.85;;;;;;;37.63;20.98;102123.50;5306421;28;20024;-68
2023/06/24 12:43:38;;;;;;;6.30;5.13;;;;;;;39.78;20.43;102133.09;5305185;28;20058;-69
2023/06/24 12:46:10;;;;;;;5.35;4.68;;;;;;;39.40;18.78;102125.63;5305589;28;20035;-69
2023/06/24 12:48:43;;;;;;;5.75;5.05;;;;;;;38.40;19.71;102117.84;5306986;28;20547;-69
2023/06/24 12:51:15;;;;;;;7.30;4.90;;;;;;;39.31;19.98;102121.22;5305790;28;20085;-69
2023/06/24 12:53:46;;;;;;;5.40;4.13;;;;;;;39.29;19.08;102126.84;5306320;28;20028;-69
2023/06/24 12:56:17;;;;;;;5.45;4.53;;;;;;;38.70;19.79;102121.75;5305973;28;20032;-69
2023/06/24 12:58:48;;;;;;;4.72;4.25;;;;;;;38.53;19.22;102117.31;5306497;28;20056;-68
2023/06/24 13:01:20;;;;;;;4.88;4.43;;;;;;;39.70;19.17;102118.44;5305992;28;20105;-69
2023/06/24 13:03:51;;;;;;;5.20;4.47;;;;;;;38.88;19.92;102110.63;5306416;28;20466;-70
2023/06/24 13:06:23;;;;;;;4.53;3.95;;;;;;;38.28;19.73;102120.91;5305925;28;20040;-68
2023/06/24 13:08:54;;;;;;;4.47;4.05;;;;;;;39.30;20.60;102112.19;5306366;28;20034;-69
2023/06/24 13:11:26;;;;;;;4.47;4.05;;;;;;;39.66;18.34;102108.09;5305383;28;20035;-69
2023/06/24 13:13:58;;;;;;;4.70;4.00;;;;;;;40.33;20.36;102112.00;5304951;28;20024;-70
2023/06/24 13:16:29;;;;;;;8.43;4.43;;;;;;;40.81;19.33;102107.09;5305250;28;20024;-69
2023/06/24 13:19:01;;;;;;;5.90;4.78;;;;;;;40.38;17.92;102104.09;5304816;28;20130;-69
2023/06/24 13:21:32;;;;;;;5.30;4.80;;;;;;;39.57;17.92;102105.41;5305538;28;20043;-69
2023/06/24 13:24:04;;;;;;;6.60;4.97;;;;;;;39.20;19.56;102100.63;5305845;28;20129;-69
2023/06/24 13:26:35;;;;;;;5.72;4.07;;;;;;;39.72;19.85;102105.50;5305133;28;20097;-69
2023/06/24 13:29:07;;;;;;;5.03;4.18;;;;;;;40.07;18.85;102094.97;5306158;28;20097;-69
2023/06/24 13:31:39;;;;;;;4.50;4.10;;;;;;;41.21;18.73;102096.69;5304954;28;20034;-68
2023/06/24 13:34:10;;;;;;;6.18;5.00;;;;;;;39.77;18.24;102104.94;5305704;28;20040;-69
2023/06/24 13:36:42;;;;;;;5.78;4.40;;;;;;;40.91;19.99;102095.88;5305203;28;20028;-69
2023/06/24 13:39:16;;;;;;;5.00;4.50;;;;;;;41.64;18.53;102096.78;5305768;28;20028;-69
2023/06/24 13:41:48;;;;;;;8.68;4.85;;;;;;;41.15;17.89;102095.56;5305276;28;20031;-69
2023/06/24 13:44:20;;;;;;;5.38;4.40;;;;;;;40.42;20.54;102091.81;5304885;28;20086;-69
2023/06/24 13:46:53;;;;;;;5.65;4.28;;;;;;;41.48;18.22;102097.88;5303895;28;20127;-70
2023/06/24 13:49:25;;;;;;;6.88;4.97;;;;;;;42.18;16.89;102091.84;5305313;28;20101;-69
2023/06/24 13:51:56;;;;;;;5.43;4.78;;;;;;;39.32;17.81;102091.03;5304521;28;20479;-70
2023/06/24 13:54:31;;;;;;;6.05;4.90;;;;;;;38.00;19.54;102082.28;5305399;28;20084;-70
2023/06/24 13:57:02;;;;;;;5.43;4.60;;;;;;;40.66;18.84;102079.75;5304724;28;20028;-69
2023/06/24 13:59:33;;;;;;;6.43;4.43;;;;;;;39.39;18.93;102080.25;5305112;28;20039;-71
2023/06/24 14:02:05;;;;;;;4.60;4.20;;;;;;;40.06;19.46;102082.38;5304529;28;20111;-70
2023/06/24 14:04:38;;;;;;;5.80;4.78;;;;;;;41.48;17.37;102083.34;5304951;28;20028;-70
2023/06/24 14:07:10;;;;;;;5.15;4.65;;;;;;;41.58;17.06;102083.88;5305486;28;20027;-68
2023/06/24 14:09:41;;;;;;;6.72;4.47;;;;;;;40.07;18.07;102080.50;5305944;28;20039;-70
2023/06/24 14:12:13;;;;;;;4.97;4.47;;;;;;;39.30;19.15;102087.66;5303642;28;20055;-70
2023/06/24 14:14:44;;;;;;;4.93;4.43;;;;;;;39.10;18.67;102070.88;5324164;28;20034;-70
2023/06/24 14:17:15;;;;;;;5.10;4.35;;;;;;;39.38;19.76;102073.97;5325124;28;20096;-70
2023/06/24 14:19:47;;;;;;;4.82;4.32;;;;;;;39.77;18.66;102069.47;5324157;28;20040;-70
2023/06/24 14:22:18;;;;;;;10.00;4.53;;;;;;;40.38;17.52;102068.59;5324190;28;20047;-69
2023/06/24 14:24:50;;;;;;;5.40;4.15;;;;;;;39.92;18.68;102064.03;5322764;28;20028;-68
2023/06/24 14:27:21;;;;;;;5.18;4.68;;;;;;;39.84;18.01;102064.97;5303296;28;20386;-69
2023/06/24 14:29:52;;;;;;;6.25;4.30;;;;;;;39.67;18.68;102066.13;5304348;28;20102;-69
2023/06/24 14:32:24;;;;;;;4.82;4.32;;;;;;;40.32;17.53;102056.53;5302152;28;20040;-68
2023/06/24 14:34:55;;;;;;;4.88;4.38;;;;;;;40.39;20.39;102049.28;5304619;28;20032;-69
2023/06/24 14:37:27;;;;;;;8.05;4.93;;;;;;;41.86;20.05;102053.00;5303712;28;20044;-69
2023/06/24 14:39:58;;;;;;;9.13;4.65;;;;;;;41.34;17.21;102053.09;5304639;28;20028;-69
2023/06/24 14:42:29;;;;;;;6.82;4.60;;;;;;;40.84;17.25;102054.78;5303940;28;20028;-70
2023/06/24 14:45:01;;;;;;;4.88;4.40;;;;;;;40.92;17.02;102048.38;5302580;28;20112;-69
2023/06/24 14:47:32;;;;;;;5.00;4.50;;;;;;;39.87;18.20;102050.94;5304813;28;20123;-69
2023/06/24 14:50:04;;;;;;;6.60;4.80;;;;;;;39.40;18.40;102043.78;5306019;28;20359;-69
2023/06/24 14:52:35;;;;;;;8.57;7.82;;;;;;;40.01;18.33;102038.41;5309250;27;20032;-69
2023/06/24 14:55:07;;;;;;;6.72;5.70;;;;;;;40.45;18.23;102036.78;5303458;28;20115;-69
2023/06/24 14:57:39;;;;;;;5.82;5.15;;;;;;;42.51;19.98;102030.91;5324956;27;20058;-70
2023/06/24 15:00:11;;;;;;;5.82;4.72;;;;;;;42.97;17.04;102031.19;5333090;27;20080;-69
2023/06/24 15:02:42;;;;;;;5.70;5.18;;;;;;;43.06;15.28;102034.59;5335116;27;20050;-69
2023/06/24 15:05:14;;;;;;;6.95;5.10;;;;;;;41.21;18.11;102025.56;5325796;28;20043;-69
2023/06/24 15:07:45;;;;;;;5.63;4.57;;;;;;;43.14;16.75;102034.41;5304813;28;20402;-69
2023/06/24 15:10:17;;;;;;;5.20;4.70;;;;;;;43.91;17.88;102027.75;5307279;28;20035;-69
2023/06/24 15:12:48;;;;;;;5.70;5.07;;;;;;;43.59;14.92;102027.56;5311393;28;20327;-69
2023/06/24 15:15:19;;;;;;;9.77;5.05;;;;;;;42.47;16.08;102024.16;5324595;28;20371;-70
2023/06/24 15:17:51;;;;;;;5.20;4.65;;;;;;;42.30;15.98;102019.00;5324132;28;20083;-69
2023/06/24 15:20:22;;;;;;;7.35;5.80;;;;;;;42.40;15.23;102018.66;5325186;28;20074;-69
2023/06/24 15:22:53;;;;;;;5.53;4.70;;;;;;;40.35;17.27;102014.31;5307421;28;20027;-71
2023/06/24 15:25:26;;;;;;;6.22;5.30;;;;;;;41.06;17.03;102013.81;5304277;28;20122;-68
2023/06/24 15:27:58;;;;;;;6.15;4.85;;;;;;;41.59;18.40;102016.28;5308447;28;20091;-70
2023/06/24 15:30:30;;;;;;;6.38;5.20;;;;;;;41.97;16.52;102008.63;5324797;28;20042;-70
2023/06/24 15:33:01;;;;;;;6.22;4.47;;;;;;;40.07;17.31;102015.78;5323858;28;20032;-71
2023/06/24 15:35:32;;;;;;;7.50;5.07;;;;;;;40.53;17.24;102014.00;5322477;28;20036;-70
2023/06/24 15:38:04;;;;;;;7.60;4.75;;;;;;;42.08;17.44;102012.72;5322878;28;20386;-69
2023/06/24 15:40:39;;;;;;;6.97;4.53;;;;;;;40.98;16.60;102015.63;5316462;28;20457;-69
2023/06/24 15:43:11;;;;;;;5.93;4.22;;;;;;;42.55;16.89;102010.31;5328341;28;20028;-69
2023/06/24 15:45:42;;;;;;;5.68;4.70;;;;;;;42.41;17.27;102014.84;5328950;28;20024;-69
2023/06/24 15:48:14;;;;;;;7.82;5.85;;;;;;;40.89;16.16;102002.28;5328498;28;20047;-70
2023/06/24 15:50:45;;;;;;;8.35;6.30;;;;;;;40.33;16.88;101997.28;5329201;28;20088;-70
2023/06/24 15:53:16;;;;;;;5.72;4.43;;;;;;;42.33;17.22;101996.69;5328114;28;20035;-69
2023/06/24 15:55:48;;;;;;;6.10;4.47;;;;;;;42.99;16.55;101993.44;5329226;28;20543;-69
2023/06/24 15:58:19;;;;;;;8.43;5.07;;;;;;;43.38;15.91;101998.38;5328360;27;20028;-69
2023/06/24 16:00:50;;;;;;;6.15;5.55;;;;;;;42.18;15.64;101991.31;5328617;27;20114;-71
2023/06/24 16:03:22;;;;;;;9.77;8.88;;;;;;;42.06;16.52;101988.25;5328363;28;20023;-69
2023/06/24 16:05:53;;;;;;;12.77;11.75;;;;;;;41.60;16.42;101985.97;5321393;28;20123;-70
2023/06/24 16:08:26;;;;;;;7.13;5.95;;;;;;;40.83;17.21;101980.09;5308713;28;20062;-69
2023/06/24 16:10:59;;;;;;;5.45;4.93;;;;;;;42.14;18.89;101984.56;5304935;28;20032;-70
2023/06/24 16:13:31;;;;;;;6.90;5.53;;;;;;;42.18;17.68;101985.00;5309652;28;20490;-70
2023/06/24 16:16:03;;;;;;;6.65;4.95;;;;;;;40.68;17.10;101984.75;5306313;28;20039;-70
2023/06/24 16:18:34;;;;;;;6.32;4.97;;;;;;;41.45;17.38;101972.38;5307478;28;20475;-70
2023/06/24 16:21:06;;;;;;;9.32;5.10;;;;;;;40.60;16.92;101963.00;5304883;28;20336;-70
2023/06/24 16:23:37;;;;;;;5.40;4.90;;;;;;;40.34;16.80;101958.84;5307148;28;20042;-70
2023/06/24 16:26:09;;;;;;;7.78;5.25;;;;;;;39.00;18.64;101961.16;5306726;28;20547;-70
2023/06/24 16:28:40;;;;;;;8.07;4.90;;;;;;;40.59;17.34;101969.47;5307480;28;20101;-69
2023/06/24 16:31:12;;;;;;;9.25;6.10;;;;;;;39.18;17.53;101956.28;5306257;28;20055;-69
2023/06/24 16:33:43;;;;;;;6.60;4.57;;;;;;;38.62;19.19;101961.00;5305910;28;20077;-69
2023/06/24 16:36:14;;;;;;;5.10;4.43;;;;;;;40.01;18.60;101956.50;5306274;28;20506;-69
2023/06/24 16:38:46;;;;;;;5.82;4.40;;;;;;;41.32;18.13;101955.84;5306651;28;20032;-69
2023/06/24 16:41:17;;;;;;;5.28;4.32;;;;;;;42.05;16.65;101958.34;5306364;28;20451;-69
2023/06/24 16:43:48;;;;;;;4.93;4.43;;;;;;;41.01;16.96;101957.84;5307031;28;20065;-69
2023/06/24 16:46:23;;;;;;;8.20;4.90;;;;;;;41.09;17.43;101953.25;5305762;28;20028;-69
2023/06/24 16:48:54;;;;;;;4.20;3.80;;;;;;;42.15;18.32;101955.25;5306707;28;20084;-69
2023/06/24 16:51:25;;;;;;;4.82;4.00;;;;;;;42.42;16.02;101957.09;5305617;28;20427;-69
2023/06/24 16:53:57;;;;;;;4.75;4.25;;;;;;;43.03;19.15;101954.63;5307052;28;20028;-69
2023/06/24 16:56:29;;;;;;;4.40;4.00;;;;;;;42.10;17.04;101953.09;5306070;28;20032;-69
2023/06/24 16:59:00;;;;;;;4.45;4.05;;;;;;;41.95;17.22;101953.22;5304832;28;20093;-69
2023/06/24 17:01:32;;;;;;;5.22;4.65;;;;;;;41.74;16.82;101951.41;5305985;28;20032;-70
2023/06/24 17:04:04;;;;;;;7.28;4.53;;;;;;;41.31;19.07;101946.78;5306542;28;20055;-68
2023/06/24 17:06:36;;;;;;;5.13;4.40;;;;;;;43.06;17.41;101945.97;5287710;28;20195;-68
2023/06/24 17:09:07;;;;;;;4.88;4.10;;;;;;;43.14;16.83;101943.88;5306004;28;20072;-69
2023/06/24 17:11:39;;;;;;;5.53;4.90;;;;;;;42.63;18.89;101952.56;5305591;28;20074;-69
2023/06/24 17:14:10;;;;;;;5.25;4.22;;;;;;;42.55;19.72;101953.59;5305364;28;20043;-69
2023/06/24 17:16:41;;;;;;;5.38;4.88;;;;;;;41.15;16.83;101941.53;5305188;28;20056;-69
2023/06/24 17:19:13;;;;;;;6.13;4.80;;;;;;;41.17;18.49;101940.31;5305817;28;20056;-69
2023/06/24 17:21:44;;;;;;;4.85;4.32;;;;;;;41.04;17.50;101936.59;5305546;28;20035;-69
2023/06/24 17:24:16;;;;;;;5.07;4.20;;;;;;;41.00;17.87;101934.25;5287553;28;20550;-69
2023/06/24 17:26:47;;;;;;;5.70;4.07;;;;;;;41.91;18.44;101938.22;5305523;28;20111;-69
2023/06/24 17:29:18;;;;;;;5.25;4.28;;;;;;;41.74;19.08;101937.72;5305574;28;20429;-69
2023/06/24 17:31:50;;;;;;;4.47;4.07;;;;;;;42.40;19.40;101937.28;5305684;28;20490;-68
2023/06/24 17:34:21;;;;;;;5.22;4.30;;;;;;;42.08;17.48;101938.75;5305958;28;20028;-68
2023/06/24 17:36:52;;;;;;;7.53;4.15;;;;;;;41.57;17.42;101926.16;5304661;28;20028;-69
2023/06/24 17:39:24;;;;;;;5.05;4.55;;;;;;;41.00;18.62;101926.03;5305703;28;20120;-68
2023/06/24 17:41:55;;;;;;;5.40;4.35;;;;;;;41.37;20.19;101932.31;5305058;28;20020;-69
2023/06/24 17:44:26;;;;;;;4.85;4.43;;;;;;;41.70;18.60;101920.84;5305327;28;20069;-68
2023/06/24 17:46:59;;;;;;;6.97;4.38;;;;;;;39.71;19.04;101920.91;5304596;28;20035;-69
2023/06/24 17:49:31;;;;;;;5.90;4.40;;;;;;;40.35;19.36;101926.91;5305593;28;20536;-69
2023/06/24 17:52:02;;;;;;;5.00;4.30;;;;;;;39.48;19.01;101918.22;5304954;28;20032;-69
2023/06/24 17:54:34;;;;;;;4.53;4.10;;;;;;;38.23;20.39;101926.41;5304127;28;20035;-71
2023/06/24 17:57:05;;;;;;;5.78;4.25;;;;;;;38.32;20.66;101925.38;5304536;28;20035;-69
2023/06/24 17:59:36;;;;;;;7.88;4.00;;;;;;;38.64;21.97;101916.22;5305111;28;20036;-69
2023/06/24 18:02:08;;;;;;;4.15;3.75;;;;;;;38.94;23.59;101915.53;5303753;28;20127;-68
2023/06/24 18:04:39;;;;;;;6.43;4.60;;;;;;;39.39;22.21;101911.97;5305229;28;20028;-68
2023/06/24 18:07:11;;;;;;;5.88;4.00;;;;;;;39.33;21.76;101918.16;5304333;28;20110;-69
2023/06/24 18:09:42;;;;;;;4.55;4.15;;;;;;;38.76;22.39;101919.38;5305179;28;20039;-69
2023/06/24 18:12:14;;;;;;;5.22;4.25;;;;;;;38.77;21.18;101914.78;5304177;28;20043;-69
2023/06/24 18:14:45;;;;;;;5.05;3.92;;;;;;;38.69;21.34;101915.69;5304532;28;20092;-69
2023/06/24 18:17:16;;;;;;;4.68;4.18;;;;;;;38.75;21.79;101909.50;5316293;28;20115;-69
2023/06/24 18:19:48;;;;;;;4.40;3.95;;;;;;;39.01;24.05;101905.59;5318627;28;20102;-69
2023/06/24 18:22:19;;;;;;;6.63;4.68;;;;;;;37.64;21.87;101903.00;5312678;28;20032;-68
2023/06/24 18:24:52;;;;;;;6.70;4.80;;;;;;;37.89;22.03;101909.28;5305905;28;20391;-70
2023/06/24 18:27:24;;;;;;;6.85;4.43;;;;;;;37.70;23.77;101904.22;5305785;28;20130;-69
2023/06/24 18:29:55;;;;;;;6.13;4.45;;;;;;;37.59;23.73;101902.66;5306820;28;20149;-70
2023/06/24 18:32:27;;;;;;;5.18;4.20;;;;;;;36.91;23.62;101901.91;5306743;28;20023;-69
2023/06/24 18:34:58;;;;;;;7.07;4.60;;;;;;;36.87;25.40;101905.97;5304241;28;20028;-69
2023/06/24 18:37:30;;;;;;;5.25;4.32;;;;;;;37.44;26.92;101901.66;5303364;28;20173;-69
2023/06/24 18:40:03;;;;;;;4.50;4.10;;;;;;;37.05;26.09;101898.53;5315056;28;20043;-69
2023/06/24 18:42:34;;;;;;;5.03;3.67;;;;;;;36.58;24.91;101901.81;5308939;28;20036;-70
2023/06/24 18:45:06;;;;;;;5.45;4.28;;;;;;;36.38;26.07;101893.06;5303524;28;20028;-69
2023/06/24 18:47:37;;;;;;;4.40;3.72;;;;;;;35.93;26.20;101896.88;5302806;28;20435;-69
2023/06/24 18:50:09;;;;;;;5.38;4.35;;;;;;;35.82;27.50;101891.72;5304325;28;20129;-69
2023/06/24 18:52:40;;;;;;;4.50;4.10;;;;;;;35.47;28.52;101898.88;5317796;28;20058;-67
2023/06/24 18:55:12;;;;;;;4.53;3.85;;;;;;;35.18;28.24;101889.97;5324100;28;20044;-69
2023/06/24 18:57:43;;;;;;;5.40;4.03;;;;;;;34.76;28.88;101895.13;5324475;28;20040;-70
2023/06/24 19:00:15;;;;;;;5.82;4.20;;;;;;;34.40;29.27;101895.84;5324152;28;20036;-70
2023/06/24 19:02:46;;;;;;;5.25;4.47;;;;;;;34.28;30.71;101895.19;5325070;28;20039;-67
2023/06/24 19:05:17;;;;;;;4.80;3.53;;;;;;;33.60;32.10;101892.59;5325610;27;20042;-68